Meyersville, Texas
Current Conditions -  °F | °C
As of 11:51 AM on Friday 24 Oct 2014 (Local Time) from KVCT Reporting Station
Clear Clear  
Wind Chill: 81°   Ceiling: Unl
Heat Index: 81°   Visibility: 10mi
Dew Point: 56°   Wind: 8mph
Humidity: 42%   Direction: 360°N
Pressure: 30.17"   Gusts: NA
Location:  28.93°N, 97.31°W
Report Text: KVCT 241651Z 36007KT 10SM CLR 27/13 A3017 RMK AO2 SLP215 T02720133
Loading
Personal Weather Stations






























Interactive Weather Map New forecast layout! Learn more

10-Day Weather Forecast

Advertisements
Track Severe Weather on mobile